Time;durP1;ratioP1;P1;durP2;ratioP2;P2;SDS_P1;SDS_P2;PMS_P1;PMS_P2;Temp;Humidity;BMP_temperature;BMP_pressure;BME280_temperature;BME280_humidity;BME280_pressure;Samples;Min_cycle;Max_cycle;Signal;HPM_P1;HPM_P2
2021/06/24 00:01:34;;;;;;;10.45;5.68;;;12.30;99.90;;;;;;5013715;28;20025;-76
2021/06/24 00:03:59;;;;;;;19.38;6.60;;;12.30;99.90;;;;;;5012405;28;20512;-77
2021/06/24 00:06:25;;;;;;;11.02;5.75;;;12.30;99.90;;;;;;5012224;28;20145;-76
2021/06/24 00:08:50;;;;;;;16.10;5.72;;;12.40;99.90;;;;;;5013619;28;20025;-77
2021/06/24 00:11:16;;;;;;;15.48;6.00;;;12.30;99.90;;;;;;5013524;28;20117;-76
2021/06/24 00:13:42;;;;;;;9.90;5.72;;;12.40;99.90;;;;;;5013494;28;20048;-77
2021/06/24 00:16:08;;;;;;;18.75;6.15;;;12.40;99.90;;;;;;5009360;28;20034;-76
2021/06/24 00:18:34;;;;;;;15.27;5.90;;;12.40;99.90;;;;;;4993915;28;20049;-76
2021/06/24 00:21:00;;;;;;;10.88;5.93;;;12.40;99.90;;;;;;4994065;28;20053;-77
2021/06/24 00:23:26;;;;;;;17.33;6.40;;;12.30;99.90;;;;;;4993613;28;20490;-77
2021/06/24 00:25:52;;;;;;;17.00;6.80;;;12.40;99.90;;;;;;4993649;28;20030;-76
2021/06/24 00:28:18;;;;;;;19.10;6.38;;;12.40;99.90;;;;;;4993154;28;20030;-76
2021/06/24 00:30:46;;;;;;;22.83;6.80;;;12.40;99.90;;;;;;4993824;28;20037;-77
2021/06/24 00:33:12;;;;;;;16.00;7.40;;;12.40;99.90;;;;;;4992211;28;20018;-76
2021/06/24 00:35:38;;;;;;;15.90;6.78;;;12.40;99.90;;;;;;4993677;28;20030;-76
2021/06/24 00:38:04;;;;;;;14.95;7.05;;;12.50;99.90;;;;;;5007632;28;20109;-77
2021/06/24 00:40:33;;;;;;;13.93;7.55;;;12.50;99.90;;;;;;5013143;28;20482;-77
2021/06/24 00:43:00;;;;;;;19.95;8.18;;;12.50;99.90;;;;;;5012837;28;20029;-76
2021/06/24 00:45:26;;;;;;;12.40;7.45;;;12.40;99.90;;;;;;5013052;28;20037;-77
2021/06/24 00:47:51;;;;;;;13.40;7.68;;;12.40;99.90;;;;;;5011372;28;20033;-77
2021/06/24 00:50:17;;;;;;;17.00;7.03;;;12.40;99.90;;;;;;5028092;28;20364;-76
2021/06/24 00:52:43;;;;;;;15.68;7.32;;;12.40;99.90;;;;;;5012538;28;20034;-76
2021/06/24 00:55:09;;;;;;;13.48;7.35;;;12.40;99.90;;;;;;5011644;28;20389;-77
2021/06/24 00:57:36;;;;;;;18.05;7.47;;;12.50;99.90;;;;;;5007987;28;20022;-76
2021/06/24 01:00:07;;;;;;;18.10;8.13;;;12.50;99.90;;;;;;5008076;28;20072;-77
2021/06/24 01:02:33;;;;;;;21.10;8.45;;;12.50;99.90;;;;;;4992868;28;20050;-76
2021/06/24 01:04:59;;;;;;;14.63;8.45;;;12.40;99.90;;;;;;4993049;28;20030;-77
2021/06/24 01:07:25;;;;;;;21.90;8.80;;;12.40;99.90;;;;;;4994368;28;20091;-77
2021/06/24 01:09:51;;;;;;;18.98;9.25;;;12.40;99.90;;;;;;5012480;28;20034;-77
2021/06/24 01:12:17;;;;;;;18.80;8.18;;;12.40;99.90;;;;;;5011886;28;20026;-76
2021/06/24 01:14:42;;;;;;;16.65;8.98;;;12.40;99.90;;;;;;5012586;28;20057;-76
2021/06/24 01:17:08;;;;;;;11.35;8.10;;;12.50;99.90;;;;;;5012531;28;20034;-76
2021/06/24 01:19:34;;;;;;;17.63;8.75;;;12.40;99.90;;;;;;5007792;28;20037;-77
2021/06/24 01:22:00;;;;;;;20.08;9.38;;;12.40;99.90;;;;;;4995103;28;20398;-76
2021/06/24 01:24:25;;;;;;;22.27;9.38;;;12.50;99.90;;;;;;5012451;28;20486;-76
2021/06/24 01:26:51;;;;;;;17.10;9.77;;;12.50;99.90;;;;;;5011207;28;20505;-76
2021/06/24 01:29:17;;;;;;;12.27;8.95;;;12.50;99.90;;;;;;5015037;28;20630;-76
2021/06/24 01:31:43;;;;;;;22.65;10.40;;;12.50;99.90;;;;;;4992483;28;20097;-77
2021/06/24 01:34:12;;;;;;;20.23;9.98;;;12.40;99.90;;;;;;4992579;28;20022;-76
2021/06/24 01:36:39;;;;;;;15.45;10.30;;;12.40;99.90;;;;;;4992652;28;20030;-77
2021/06/24 01:39:08;;;;;;;15.18;8.57;;;12.40;99.90;;;;;;4999311;28;20030;-76
2021/06/24 01:41:34;;;;;;;24.23;10.68;;;12.40;99.90;;;;;;5011762;28;20113;-77
2021/06/24 01:44:00;;;;;;;28.52;10.40;;;12.40;99.90;;;;;;5012143;28;20117;-76
2021/06/24 01:46:26;;;;;;;20.10;10.40;;;12.30;99.90;;;;;;5012090;28;20030;-76
2021/06/24 01:48:51;;;;;;;17.33;9.77;;;12.30;99.90;;;;;;5011306;28;20037;-77
2021/06/24 01:51:17;;;;;;;22.70;9.88;;;12.30;99.90;;;;;;5011813;28;20030;-77
2021/06/24 01:53:43;;;;;;;20.23;10.07;;;12.20;99.90;;;;;;5010748;28;20041;-77
2021/06/24 01:56:09;;;;;;;27.60;10.18;;;12.30;99.90;;;;;;5012086;28;20033;-76
2021/06/24 01:58:35;;;;;;;22.83;9.57;;;12.20;99.90;;;;;;5010854;28;20041;-77
2021/06/24 02:01:01;;;;;;;18.63;10.45;;;12.30;99.90;;;;;;5010113;28;20405;-77
2021/06/24 02:03:27;;;;;;;18.13;9.88;;;12.30;99.90;;;;;;5011761;28;20030;-76
2021/06/24 02:05:56;;;;;;;17.42;9.18;;;12.30;99.90;;;;;;5011507;28;20049;-77
2021/06/24 02:08:24;;;;;;;19.20;8.77;;;12.20;99.90;;;;;;5011898;28;20479;-76
2021/06/24 02:10:51;;;;;;;15.48;8.50;;;12.30;99.90;;;;;;4998364;28;20022;-76
2021/06/24 02:13:17;;;;;;;22.42;10.50;;;12.30;99.90;;;;;;4992030;28;20035;-77
2021/06/24 02:15:43;;;;;;;13.75;8.95;;;12.30;99.90;;;;;;4992250;28;20030;-76
2021/06/24 02:18:09;;;;;;;19.58;9.30;;;12.30;99.90;;;;;;4992269;28;20034;-76
2021/06/24 02:20:35;;;;;;;36.83;9.77;;;12.20;99.90;;;;;;4998867;28;20029;-76
2021/06/24 02:23:01;;;;;;;22.73;10.23;;;12.20;99.90;;;;;;5011569;28;20033;-77
2021/06/24 02:25:27;;;;;;;11.45;8.40;;;12.30;99.90;;;;;;5011788;28;20026;-77
2021/06/24 02:27:53;;;;;;;19.60;8.98;;;12.20;99.90;;;;;;5011748;28;20033;-76
2021/06/24 02:30:20;;;;;;;16.30;8.77;;;12.20;99.90;;;;;;5008070;28;20027;-76
2021/06/24 02:32:45;;;;;;;22.10;9.73;;;12.20;99.90;;;;;;4992371;28;20032;-76
2021/06/24 02:35:14;;;;;;;13.93;8.40;;;12.20;99.90;;;;;;4991896;28;20026;-76
2021/06/24 02:37:42;;;;;;;14.20;9.15;;;12.10;99.90;;;;;;4993170;28;20088;-77
2021/06/24 02:40:09;;;;;;;14.27;8.10;;;12.10;99.90;;;;;;5010314;28;20030;-77
2021/06/24 02:42:35;;;;;;;10.48;8.02;;;12.10;99.90;;;;;;5011345;28;20034;-76
2021/06/24 02:45:02;;;;;;;16.60;8.27;;;12.00;99.90;;;;;;5010433;28;20144;-76
2021/06/24 02:47:27;;;;;;;17.67;9.07;;;12.10;99.90;;;;;;5010269;28;20057;-76
2021/06/24 02:49:53;;;;;;;16.70;8.52;;;12.00;99.90;;;;;;4994485;28;20066;-76
2021/06/24 02:52:19;;;;;;;19.70;9.13;;;12.00;99.90;;;;;;5009481;28;20592;-77
2021/06/24 02:54:44;;;;;;;16.13;9.18;;;12.00;99.90;;;;;;4995555;28;20026;-76
2021/06/24 02:57:10;;;;;;;14.32;8.38;;;12.00;99.90;;;;;;4994962;28;20022;-76
2021/06/24 02:59:36;;;;;;;22.17;8.98;;;12.00;99.90;;;;;;5017459;28;20406;-76
2021/06/24 03:02:02;;;;;;;13.55;8.60;;;12.00;99.90;;;;;;4995204;28;20031;-76
2021/06/24 03:04:28;;;;;;;17.60;9.25;;;12.00;99.90;;;;;;4995326;28;20019;-77
2021/06/24 03:06:54;;;;;;;21.42;8.77;;;12.10;99.90;;;;;;4995337;28;20482;-76
2021/06/24 03:09:20;;;;;;;22.17;9.95;;;12.10;99.90;;;;;;5000008;28;20037;-77
2021/06/24 03:11:49;;;;;;;17.17;8.63;;;12.00;99.90;;;;;;5014816;28;20026;-76
2021/06/24 03:14:15;;;;;;;16.92;8.27;;;12.10;99.90;;;;;;5013763;28;20022;-76
2021/06/24 03:16:41;;;;;;;16.75;8.82;;;12.10;99.90;;;;;;5013514;28;20024;-77
2021/06/24 03:19:07;;;;;;;10.25;7.60;;;12.10;99.90;;;;;;5012398;28;20113;-76
2021/06/24 03:21:33;;;;;;;13.00;8.75;;;12.20;99.90;;;;;;5009961;28;20483;-76
2021/06/24 03:23:59;;;;;;;25.25;8.75;;;12.10;99.90;;;;;;4995004;28;20065;-76
2021/06/24 03:26:25;;;;;;;14.90;8.57;;;12.10;99.90;;;;;;4994981;28;20034;-77
2021/06/24 03:28:51;;;;;;;13.13;7.75;;;12.20;99.90;;;;;;4994829;28;20495;-76
2021/06/24 03:31:17;;;;;;;19.60;8.63;;;12.30;99.90;;;;;;5025052;28;20565;-76
2021/06/24 03:33:43;;;;;;;16.88;7.90;;;12.20;99.90;;;;;;5004385;28;20038;-76
2021/06/24 03:36:08;;;;;;;10.48;7.28;;;12.20;99.90;;;;;;4994719;28;20026;-77
2021/06/24 03:38:34;;;;;;;15.50;7.80;;;12.20;99.90;;;;;;4994752;28;20041;-76
2021/06/24 03:41:00;;;;;;;16.52;8.50;;;12.20;99.90;;;;;;5004655;28;20041;-77
2021/06/24 03:43:26;;;;;;;16.50;8.30;;;12.10;99.90;;;;;;5013966;28;20022;-76
2021/06/24 03:45:52;;;;;;;17.02;8.18;;;12.20;99.90;;;;;;5012879;28;20386;-76
2021/06/24 03:48:17;;;;;;;18.67;8.30;;;12.20;99.90;;;;;;5014127;28;20014;-76
2021/06/24 03:50:43;;;;;;;17.05;8.98;;;12.20;99.90;;;;;;5009498;28;20030;-76
2021/06/24 03:53:09;;;;;;;16.05;9.27;;;12.20;99.90;;;;;;4994099;28;20034;-76
2021/06/24 03:55:41;;;;;;;12.85;7.63;;;12.20;99.90;;;;;;4994481;28;20022;-77
2021/06/24 03:58:07;;;;;;;11.35;8.27;;;12.20;99.90;;;;;;4993192;28;20049;-76
2021/06/24 04:00:34;;;;;;;12.82;7.88;;;12.20;99.90;;;;;;4995276;28;20101;-76
2021/06/24 04:03:00;;;;;;;15.80;8.93;;;12.30;99.90;;;;;;5012684;28;20470;-77
2021/06/24 04:05:29;;;;;;;16.50;8.65;;;12.20;99.90;;;;;;5013851;28;20141;-77
2021/06/24 04:07:55;;;;;;;19.52;9.63;;;12.20;99.90;;;;;;5013776;28;20022;-76
2021/06/24 04:10:20;;;;;;;14.68;8.38;;;12.20;99.90;;;;;;5013500;28;20384;-77
2021/06/24 04:12:46;;;;;;;17.98;9.18;;;12.20;99.90;;;;;;4996768;28;20038;-77
2021/06/24 04:15:12;;;;;;;19.17;9.55;;;12.30;99.90;;;;;;4993934;28;20030;-76
2021/06/24 04:17:38;;;;;;;20.80;9.38;;;12.30;99.90;;;;;;4992757;28;20109;-77
2021/06/24 04:20:05;;;;;;;16.60;9.93;;;12.30;99.90;;;;;;4993961;28;20105;-76
2021/06/24 04:22:31;;;;;;;13.40;9.63;;;12.30;99.90;;;;;;5004860;28;20038;-77
2021/06/24 04:24:56;;;;;;;18.17;10.73;;;12.30;99.90;;;;;;5013554;28;20080;-76
2021/06/24 04:27:22;;;;;;;18.17;10.13;;;12.40;99.90;;;;;;5012132;28;20037;-77
2021/06/24 04:29:47;;;;;;;21.15;9.57;;;12.40;99.90;;;;;;5013278;28;20470;-76
2021/06/24 04:32:13;;;;;;;15.20;9.35;;;12.50;99.90;;;;;;5006542;28;20037;-77
2021/06/24 04:34:38;;;;;;;14.35;8.50;;;12.40;99.90;;;;;;4993718;28;20470;-76
2021/06/24 04:37:04;;;;;;;18.33;8.15;;;12.50;99.90;;;;;;4993673;28;20080;-76
2021/06/24 04:39:30;;;;;;;16.42;8.18;;;12.50;99.90;;;;;;4993629;28;20410;-77
2021/06/24 04:41:55;;;;;;;21.05;8.50;;;12.60;99.90;;;;;;4992747;28;20505;-76
2021/06/24 04:44:21;;;;;;;12.43;7.10;;;12.70;99.90;;;;;;5013030;28;20026;-76
2021/06/24 04:46:47;;;;;;;23.45;11.07;;;12.70;99.90;;;;;;5011785;28;20029;-76
2021/06/24 04:49:12;;;;;;;20.35;8.73;;;12.60;99.90;;;;;;5012932;28;20022;-76
2021/06/24 04:51:38;;;;;;;16.40;9.23;;;12.70;99.90;;;;;;5012800;28;20022;-77
2021/06/24 04:54:04;;;;;;;21.45;9.95;;;12.70;99.90;;;;;;5012058;28;20144;-76
2021/06/24 04:56:30;;;;;;;15.32;7.85;;;12.70;99.90;;;;;;5012981;28;20064;-76
2021/06/24 04:58:56;;;;;;;18.95;9.00;;;12.70;99.90;;;;;;5012226;28;20172;-76
2021/06/24 05:01:21;;;;;;;13.05;7.13;;;12.70;99.90;;;;;;5012597;28;20013;-76
2021/06/24 05:03:47;;;;;;;18.63;7.95;;;12.70;99.90;;;;;;5012068;28;20429;-76
2021/06/24 05:06:15;;;;;;;16.15;7.32;;;12.80;99.90;;;;;;4998202;28;20061;-77
2021/06/24 05:08:40;;;;;;;15.82;7.85;;;12.90;99.90;;;;;;4993048;28;20427;-76
2021/06/24 05:11:06;;;;;;;11.25;6.78;;;12.90;99.90;;;;;;4992764;28;20061;-77
2021/06/24 05:13:32;;;;;;;13.05;6.75;;;13.00;99.90;;;;;;5008395;28;20030;-76
2021/06/24 05:15:59;;;;;;;11.10;7.05;;;13.00;99.90;;;;;;4992932;28;20030;-76
2021/06/24 05:18:25;;;;;;;16.45;5.78;;;13.00;99.90;;;;;;4992967;28;20037;-76
2021/06/24 05:20:51;;;;;;;10.63;6.43;;;13.10;99.90;;;;;;4993042;28;20081;-77
2021/06/24 05:23:17;;;;;;;13.15;7.38;;;13.10;99.90;;;;;;4993038;28;20026;-77
2021/06/24 05:25:45;;;;;;;13.18;6.93;;;13.10;99.90;;;;;;5012372;28;20044;-76
2021/06/24 05:28:11;;;;;;;9.50;6.55;;;13.10;99.90;;;;;;5011145;28;20045;-76
2021/06/24 05:30:38;;;;;;;9.77;6.32;;;13.10;99.90;;;;;;5012229;28;20037;-76
2021/06/24 05:33:04;;;;;;;11.80;6.25;;;13.20;99.90;;;;;;5011958;28;20018;-77
2021/06/24 05:35:29;;;;;;;14.30;6.13;;;13.20;99.90;;;;;;4997036;28;20018;-77
2021/06/24 05:37:56;;;;;;;15.98;6.18;;;13.30;99.90;;;;;;4992635;28;20077;-76
2021/06/24 05:40:22;;;;;;;12.07;6.82;;;13.20;99.90;;;;;;4992413;28;20034;-77
2021/06/24 05:42:48;;;;;;;12.25;6.60;;;13.30;99.90;;;;;;4992297;28;20034;-76
2021/06/24 05:45:14;;;;;;;12.60;5.97;;;13.30;99.90;;;;;;5017536;28;20033;-77
2021/06/24 05:47:40;;;;;;;11.70;5.22;;;13.30;99.90;;;;;;5012130;28;20083;-77
2021/06/24 05:50:06;;;;;;;16.02;5.57;;;13.40;99.90;;;;;;5012709;28;20104;-76
2021/06/24 05:52:32;;;;;;;25.35;6.55;;;13.30;99.90;;;;;;5011658;28;20089;-77
2021/06/24 05:54:57;;;;;;;11.25;4.88;;;13.40;99.90;;;;;;5006833;28;20022;-76
2021/06/24 05:57:23;;;;;;;12.63;5.50;;;13.40;99.90;;;;;;4991274;28;20505;-76
2021/06/24 05:59:49;;;;;;;11.30;5.40;;;13.50;99.90;;;;;;5007689;28;20511;-76
2021/06/24 06:02:15;;;;;;;10.82;6.03;;;13.50;99.90;;;;;;5004658;28;20030;-76
2021/06/24 06:04:40;;;;;;;10.15;5.10;;;13.50;99.90;;;;;;5011310;28;20041;-76
2021/06/24 06:07:06;;;;;;;13.30;4.38;;;13.60;99.90;;;;;;5043180;28;20062;-76
2021/06/24 06:09:31;;;;;;;8.30;5.28;;;13.60;99.90;;;;;;5011654;28;20124;-76
2021/06/24 06:11:57;;;;;;;12.07;4.60;;;13.60;99.90;;;;;;5011459;28;20036;-77
2021/06/24 06:14:23;;;;;;;12.75;5.70;;;13.70;99.90;;;;;;5011795;28;20038;-77
2021/06/24 06:16:48;;;;;;;9.50;4.80;;;13.80;99.90;;;;;;5009994;28;20018;-77
2021/06/24 06:19:14;;;;;;;14.15;5.35;;;13.90;99.90;;;;;;5011791;28;20398;-76
2021/06/24 06:21:40;;;;;;;10.02;5.32;;;13.80;99.90;;;;;;5010207;28;20026;-77
2021/06/24 06:24:06;;;;;;;13.60;4.88;;;13.80;99.90;;;;;;5010282;28;20121;-76
2021/06/24 06:26:32;;;;;;;11.15;5.28;;;13.90;99.90;;;;;;5012912;28;20452;-76
2021/06/24 06:29:03;;;;;;;11.20;5.85;;;14.00;99.90;;;;;;5014208;28;20118;-77
2021/06/24 06:31:32;;;;;;;13.00;5.65;;;14.00;99.90;;;;;;5014025;28;20095;-77
2021/06/24 06:33:58;;;;;;;14.48;5.50;;;14.00;99.90;;;;;;5014046;28;20536;-76
2021/06/24 06:36:24;;;;;;;13.68;5.20;;;14.00;99.90;;;;;;5009644;28;20022;-77
2021/06/24 06:38:50;;;;;;;10.82;4.85;;;14.20;99.90;;;;;;4995759;28;20045;-77
2021/06/24 06:41:16;;;;;;;11.32;4.80;;;14.20;99.90;;;;;;4996848;28;20109;-77
2021/06/24 06:43:41;;;;;;;10.00;4.65;;;14.30;99.90;;;;;;4995533;28;20027;-77
2021/06/24 06:46:07;;;;;;;8.80;5.15;;;14.30;99.90;;;;;;5010713;28;20499;-77
2021/06/24 06:48:34;;;;;;;9.60;4.75;;;14.40;99.90;;;;;;5030291;28;20025;-77
2021/06/24 06:51:00;;;;;;;10.73;4.50;;;14.40;99.90;;;;;;5010315;28;20056;-77
2021/06/24 06:53:25;;;;;;;14.90;5.68;;;14.60;99.90;;;;;;4995137;28;20069;-77
2021/06/24 06:55:51;;;;;;;9.45;5.00;;;14.60;99.90;;;;;;4995481;28;20367;-77
2021/06/24 06:58:16;;;;;;;8.73;5.03;;;14.60;99.90;;;;;;4995688;28;20034;-77
2021/06/24 07:00:42;;;;;;;11.48;4.93;;;14.70;99.90;;;;;;4995438;28;20042;-77
2021/06/24 07:03:08;;;;;;;8.80;4.60;;;14.70;99.90;;;;;;4995084;28;20027;-77
2021/06/24 07:05:34;;;;;;;14.38;5.60;;;14.70;99.90;;;;;;4993880;28;20050;-77
2021/06/24 07:08:00;;;;;;;11.15;5.13;;;14.80;99.90;;;;;;5004843;28;20030;-77
2021/06/24 07:10:26;;;;;;;9.57;5.07;;;14.80;99.90;;;;;;5013239;28;20033;-77
2021/06/24 07:12:52;;;;;;;8.32;5.18;;;14.90;99.90;;;;;;5014541;28;20025;-77
2021/06/24 07:15:18;;;;;;;18.38;5.40;;;15.00;99.90;;;;;;5014561;28;20030;-77
2021/06/24 07:17:44;;;;;;;12.80;5.28;;;15.00;99.90;;;;;;5009820;28;20082;-77
2021/06/24 07:20:11;;;;;;;13.57;5.80;;;15.00;99.90;;;;;;4993765;28;20057;-77
2021/06/24 07:22:37;;;;;;;10.68;4.85;;;15.10;99.90;;;;;;5009931;28;20022;-77
2021/06/24 07:25:05;;;;;;;9.68;4.90;;;15.20;99.90;;;;;;5010009;28;20505;-76
2021/06/24 07:27:31;;;;;;;6.47;3.70;;;15.30;99.90;;;;;;4994900;28;20033;-77
2021/06/24 07:29:57;;;;;;;9.25;4.60;;;15.70;99.90;;;;;;5012992;28;20026;-77
2021/06/24 07:32:23;;;;;;;10.40;4.72;;;15.90;99.90;;;;;;5012544;28;20034;-77
2021/06/24 07:34:48;;;;;;;11.80;3.92;;;16.10;99.90;;;;;;5001974;28;20026;-77
2021/06/24 07:37:14;;;;;;;10.30;3.95;;;16.40;99.90;;;;;;4993748;28;20027;-77
2021/06/24 07:39:40;;;;;;;11.88;4.13;;;16.50;99.90;;;;;;4994577;28;20502;-77
2021/06/24 07:42:06;;;;;;;8.15;4.30;;;16.70;99.90;;;;;;4995653;28;20117;-76
2021/06/24 07:44:31;;;;;;;8.57;3.80;;;16.90;99.90;;;;;;4996516;28;20034;-77
2021/06/24 07:46:57;;;;;;;12.05;3.55;;;17.20;99.90;;;;;;4994506;28;20542;-77
2021/06/24 07:49:23;;;;;;;5.47;2.92;;;17.20;99.90;;;;;;4994462;28;20108;-77
2021/06/24 07:51:49;;;;;;;6.15;2.47;;;17.30;99.90;;;;;;4992979;28;20116;-77
2021/06/24 07:54:15;;;;;;;8.88;3.35;;;17.10;99.90;;;;;;5007520;28;20151;-76
2021/06/24 07:56:41;;;;;;;8.38;2.95;;;17.20;99.90;;;;;;5009458;28;20383;-77
2021/06/24 07:59:10;;;;;;;12.05;3.78;;;17.10;99.90;;;;;;4992984;28;20125;-76
2021/06/24 08:01:36;;;;;;;7.93;2.60;;;17.10;99.90;;;;;;4994140;28;20037;-77
2021/06/24 08:04:04;;;;;;;6.60;2.55;;;17.00;99.90;;;;;;4994341;28;20526;-76
2021/06/24 08:06:30;;;;;;;5.55;2.55;;;17.00;99.90;;;;;;5009315;28;20030;-77
2021/06/24 08:08:55;;;;;;;7.63;3.05;;;16.70;99.90;;;;;;5008868;28;20545;-77
2021/06/24 08:11:21;;;;;;;9.43;3.33;;;16.60;99.90;;;;;;4993938;28;20030;-77
2021/06/24 08:13:46;;;;;;;10.95;2.83;;;16.60;99.90;;;;;;5000449;28;20049;-77
2021/06/24 08:16:12;;;;;;;7.05;3.28;;;16.70;99.90;;;;;;5013592;28;20057;-76
2021/06/24 08:18:38;;;;;;;4.38;2.30;;;16.70;99.90;;;;;;5013466;28;20057;-77
2021/06/24 08:21:04;;;;;;;7.60;3.45;;;16.80;99.90;;;;;;5012324;28;20022;-77
2021/06/24 08:23:30;;;;;;;6.00;2.78;;;16.80;99.90;;;;;;5026294;28;20049;-77
2021/06/24 08:25:56;;;;;;;8.85;2.83;;;16.80;99.90;;;;;;5008876;28;20450;-78
2021/06/24 08:28:21;;;;;;;10.77;2.83;;;16.80;99.90;;;;;;5000419;28;20033;-77
2021/06/24 08:30:48;;;;;;;7.55;3.33;;;16.80;99.90;;;;;;5007670;28;20056;-78
2021/06/24 08:33:14;;;;;;;7.30;4.00;;;16.80;99.90;;;;;;5008450;28;20474;-77
2021/06/24 08:35:41;;;;;;;6.22;3.22;;;16.90;99.90;;;;;;5012899;28;20022;-77
2021/06/24 08:38:06;;;;;;;6.65;3.22;;;16.90;99.90;;;;;;5011595;28;20116;-76
2021/06/24 08:40:32;;;;;;;5.72;2.97;;;17.00;99.90;;;;;;5012988;28;20057;-77
2021/06/24 08:42:58;;;;;;;6.43;3.22;;;17.10;99.90;;;;;;5011956;28;20430;-77
2021/06/24 08:45:23;;;;;;;5.45;2.72;;;17.20;99.90;;;;;;5013031;28;20125;-77
2021/06/24 08:47:51;;;;;;;9.75;3.35;;;17.40;99.90;;;;;;5011650;28;20071;-77
2021/06/24 08:50:18;;;;;;;6.18;2.60;;;17.50;99.90;;;;;;5012441;28;20053;-77
2021/06/24 08:52:48;;;;;;;7.43;2.95;;;17.80;99.90;;;;;;5007542;28;20053;-77
2021/06/24 08:55:14;;;;;;;7.53;3.75;;;17.80;99.90;;;;;;4993192;28;20018;-77
2021/06/24 08:57:40;;;;;;;7.30;3.00;;;17.90;99.90;;;;;;4993180;28;20019;-77
2021/06/24 09:00:06;;;;;;;15.73;3.05;;;17.90;99.90;;;;;;4991856;28;20036;-77
2021/06/24 09:02:40;;;;;;;3.60;2.40;;;18.10;99.90;;;;;;5007938;28;20061;-77
2021/06/24 09:05:07;;;;;;;8.15;2.80;;;18.40;99.90;;;;;;4991780;28;20037;-77
2021/06/24 09:07:52;;;;;;;9.43;3.05;;;18.40;99.90;;;;;;4991793;28;20041;-77
2021/06/24 09:10:20;;;;;;;7.68;2.60;;;18.40;99.90;;;;;;4992890;28;20095;-77
2021/06/24 09:13:02;;;;;;;10.00;3.08;;;18.40;99.90;;;;;;4992710;28;20022;-77
2021/06/24 09:15:35;;;;;;;12.05;2.95;;;18.30;99.90;;;;;;4991611;28;20034;-77
2021/06/24 09:18:01;;;;;;;7.97;3.50;;;18.30;99.90;;;;;;4993061;28;20392;-77
2021/06/24 09:20:29;;;;;;;3.97;2.70;;;18.40;99.90;;;;;;4992799;28;20035;-77
2021/06/24 09:23:17;;;;;;;8.48;3.35;;;18.50;99.90;;;;;;4992647;28;20537;-77
2021/06/24 09:25:50;;;;;;;5.95;2.78;;;18.60;99.90;;;;;;5012337;28;20030;-77
2021/06/24 09:28:16;;;;;;;5.97;3.00;;;18.80;99.90;;;;;;5012350;28;20033;-77
2021/06/24 09:30:43;;;;;;;9.18;2.95;;;18.90;99.90;;;;;;5012370;28;20034;-77
2021/06/24 09:33:15;;;;;;;6.85;2.67;;;19.10;99.90;;;;;;5027189;28;20030;-77
2021/06/24 09:35:43;;;;;;;7.90;2.63;;;19.40;99.90;;;;;;4995889;28;20026;-77
2021/06/24 09:38:13;;;;;;;6.88;3.17;;;19.50;99.90;;;;;;5007712;28;20033;-77
2021/06/24 09:40:55;;;;;;;4.10;2.42;;;19.80;99.90;;;;;;4991517;28;20029;-77
2021/06/24 09:43:27;;;;;;;9.57;2.75;;;19.80;99.90;;;;;;5007321;28;20113;-77
2021/06/24 09:46:13;;;;;;;5.97;3.17;;;20.20;99.90;;;;;;5007123;28;20026;-77
2021/06/24 09:48:41;;;;;;;9.82;2.53;;;20.50;99.90;;;;;;5010910;28;20117;-77
2021/06/24 09:51:08;;;;;;;8.82;2.80;;;20.60;99.90;;;;;;5011873;28;20037;-77
2021/06/24 09:53:54;;;;;;;5.35;2.65;;;20.70;99.90;;;;;;5011912;28;20576;-77
2021/06/24 09:56:30;;;;;;;7.63;2.65;;;20.40;99.90;;;;;;4995856;28;20483;-77
2021/06/24 09:58:57;;;;;;;5.57;3.38;;;19.90;99.90;;;;;;5007695;28;20054;-77
2021/06/24 10:01:27;;;;;;;4.93;3.20;;;19.80;99.90;;;;;;5011134;28;20034;-77
2021/06/24 10:03:55;;;;;;;6.15;2.35;;;19.50;99.90;;;;;;5015774;28;20101;-77
2021/06/24 10:06:22;;;;;;;5.40;2.92;;;19.30;99.90;;;;;;4996379;28;20038;-77
2021/06/24 10:08:47;;;;;;;5.07;2.97;;;19.30;99.90;;;;;;4996158;28;20030;-77
2021/06/24 10:11:13;;;;;;;10.35;3.38;;;19.60;99.90;;;;;;4996317;28;20553;-77
2021/06/24 10:13:39;;;;;;;6.43;3.22;;;19.60;99.90;;;;;;4994901;28;20034;-77
2021/06/24 10:16:05;;;;;;;11.43;3.40;;;19.80;99.90;;;;;;4995075;28;20054;-77
2021/06/24 10:18:32;;;;;;;9.20;3.30;;;19.80;99.90;;;;;;4996143;28;20076;-77
2021/06/24 10:20:58;;;;;;;5.40;3.00;;;19.80;99.90;;;;;;5003036;28;20033;-77
2021/06/24 10:23:24;;;;;;;5.85;2.55;;;19.90;99.90;;;;;;5015425;28;20026;-77
2021/06/24 10:25:51;;;;;;;7.05;2.63;;;19.70;99.90;;;;;;5015639;28;20052;-77
2021/06/24 10:28:18;;;;;;;6.63;2.88;;;19.60;99.90;;;;;;5015655;28;20026;-77
2021/06/24 10:30:44;;;;;;;4.90;2.55;;;19.60;99.90;;;;;;5012874;28;20041;-77
2021/06/24 10:33:17;;;;;;;5.53;2.78;;;19.50;99.90;;;;;;4995772;28;20366;-77
2021/06/24 10:35:49;;;;;;;7.88;3.13;;;19.30;99.90;;;;;;4996015;28;20022;-77
2021/06/24 10:38:17;;;;;;;6.72;3.28;;;19.30;99.90;;;;;;5010851;28;20041;-77
2021/06/24 10:40:44;;;;;;;9.10;2.95;;;19.30;99.90;;;;;;4995767;28;20026;-77
2021/06/24 10:43:13;;;;;;;8.35;3.35;;;19.30;99.90;;;;;;5013904;28;20065;-77
2021/06/24 10:45:40;;;;;;;6.05;3.22;;;19.20;99.90;;;;;;5014027;28;20026;-77
2021/06/24 10:48:31;;;;;;;9.60;3.17;;;19.20;99.90;;;;;;5015397;28;20109;-77
2021/06/24 10:51:02;;;;;;;8.13;3.40;;;19.20;99.90;;;;;;5015134;28;20029;-77
2021/06/24 10:53:28;;;;;;;6.65;4.25;;;19.40;99.90;;;;;;4997074;28;20030;-77
2021/06/24 10:55:53;;;;;;;4.22;3.10;;;19.40;99.90;;;;;;4995625;28;20018;-77
2021/06/24 10:58:19;;;;;;;7.85;3.33;;;19.60;99.90;;;;;;4995406;28;20022;-77
2021/06/24 11:00:52;;;;;;;8.60;3.75;;;19.70;99.90;;;;;;4995493;28;20030;-77
2021/06/24 11:03:24;;;;;;;12.77;3.92;;;19.50;99.90;;;;;;5018078;28;20038;-77
2021/06/24 11:05:51;;;;;;;8.32;3.05;;;19.40;99.90;;;;;;4995330;28;20034;-77
2021/06/24 11:08:19;;;;;;;4.78;3.20;;;19.50;99.90;;;;;;4995353;28;20030;-77
2021/06/24 11:11:02;;;;;;;9.73;3.75;;;19.60;99.90;;;;;;4993819;28;20510;-77
2021/06/24 11:16:21;;;;;;;9.38;3.95;;;19.60;99.90;;;;;;4995200;28;20434;-77
2021/06/24 11:19:13;;;;;;;4.95;2.42;;;19.60;99.90;;;;;;5010190;28;20114;-77
2021/06/24 11:21:39;;;;;;;7.45;3.10;;;19.90;99.90;;;;;;5009963;28;20026;-77
2021/06/24 11:24:08;;;;;;;6.03;3.30;;;20.00;99.90;;;;;;5010170;28;20034;-77
2021/06/24 11:26:40;;;;;;;5.13;3.00;;;20.20;99.90;;;;;;5026532;28;20768;-77
2021/06/24 11:29:10;;;;;;;6.82;2.70;;;20.20;99.90;;;;;;4994946;28;20062;-77
2021/06/24 11:31:44;;;;;;;5.32;3.53;;;20.00;99.90;;;;;;4994733;28;20033;-77
2021/06/24 11:34:29;;;;;;;11.00;3.50;;;20.20;99.90;;;;;;5004918;28;20127;-77
2021/06/24 11:36:57;;;;;;;6.40;3.22;;;20.40;99.90;;;;;;5012830;28;20528;-77
2021/06/24 11:39:25;;;;;;;8.10;3.47;;;20.40;99.90;;;;;;5014268;28;20022;-77
2021/06/24 11:41:59;;;;;;;8.18;3.25;;;20.30;99.90;;;;;;5013965;28;20034;-77
2021/06/24 11:44:28;;;;;;;6.18;3.08;;;20.50;99.90;;;;;;5004363;28;20506;-77
2021/06/24 11:47:12;;;;;;;5.65;3.25;;;20.40;99.90;;;;;;4993417;28;20041;-77
2021/06/24 12:04:23;;;;;;;6.05;3.72;;;19.80;99.90;;;;;;5010829;28;20026;-77
2021/06/24 12:07:11;;;;;;;8.07;3.65;;;19.80;99.90;;;;;;4994167;28;20030;-77
2021/06/24 12:09:45;;;;;;;7.80;3.42;;;19.70;99.90;;;;;;4994137;28;20026;-77
2021/06/24 12:12:16;;;;;;;10.63;4.10;;;19.70;99.90;;;;;;4993872;28;20022;-77
2021/06/24 12:14:43;;;;;;;6.88;3.58;;;19.70;99.90;;;;;;5009367;28;20463;-77
2021/06/24 12:17:12;;;;;;;8.15;3.58;;;19.60;99.90;;;;;;5012263;28;20033;-77
2021/06/24 12:19:45;;;;;;;7.72;3.35;;;19.70;99.90;;;;;;5013526;28;20156;-77
2021/06/24 12:22:13;;;;;;;11.00;3.80;;;19.70;99.90;;;;;;5013222;28;20096;-77
2021/06/24 12:24:39;;;;;;;7.22;3.67;;;19.50;99.90;;;;;;5012444;28;20026;-77
2021/06/24 12:27:26;;;;;;;6.60;3.30;;;19.50;99.90;;;;;;5022724;28;20156;-77
2021/06/24 12:29:57;;;;;;;15.88;3.15;;;19.50;99.90;;;;;;4993798;28;20026;-77
2021/06/24 12:32:24;;;;;;;12.88;3.88;;;19.40;99.90;;;;;;4993468;28;20084;-76
2021/06/24 12:34:54;;;;;;;7.10;3.30;;;19.40;99.90;;;;;;4993772;28;20018;-77
2021/06/24 12:37:33;;;;;;;6.85;3.38;;;19.70;99.90;;;;;;5011257;28;20385;-77
2021/06/24 12:40:00;;;;;;;6.18;3.25;;;20.10;99.90;;;;;;5013292;28;20030;-77
2021/06/24 12:42:26;;;;;;;7.22;3.28;;;20.50;99.90;;;;;;5012815;28;20114;-77
2021/06/24 12:44:52;;;;;;;6.03;3.40;;;20.70;99.90;;;;;;5013029;28;20057;-77
2021/06/24 12:47:37;;;;;;;6.40;3.03;;;20.90;99.90;;;;;;4998115;28;20552;-77
2021/06/24 12:50:30;;;;;;;8.57;3.85;;;20.80;99.90;;;;;;4993446;28;20027;-77
2021/06/24 12:53:02;;;;;;;6.05;3.33;;;20.90;99.90;;;;;;4992713;28;20042;-77
2021/06/24 12:55:47;;;;;;;7.28;3.30;;;20.80;99.90;;;;;;4993370;28;20019;-77
2021/06/24 12:58:22;;;;;;;4.82;2.60;;;20.70;99.90;;;;;;5022721;28;20026;-77
2021/06/24 13:01:13;;;;;;;3.70;2.63;;;20.60;99.90;;;;;;4993171;28;20026;-77